createdAt,value
2024-03-30T00:01:48.417Z,101194.49
2024-03-30T00:04:16.395Z,101190.91
2024-03-30T00:06:44.402Z,101194.20
2024-03-30T00:09:12.627Z,101197.14
2024-03-30T00:11:40.560Z,101194.52
2024-03-30T00:14:08.557Z,101197.84
2024-03-30T00:16:36.638Z,101196.82
2024-03-30T00:19:05.520Z,101203.15
2024-03-30T00:21:33.524Z,101202.01
2024-03-30T00:24:02.506Z,101202.48
2024-03-30T00:26:31.025Z,101204.45
2024-03-30T00:28:58.944Z,101205.08
2024-03-30T00:31:29.078Z,101209.06
2024-03-30T00:33:57.222Z,101216.71
2024-03-30T00:36:25.805Z,101211.29
2024-03-30T00:38:53.783Z,101218.71
2024-03-30T00:41:21.765Z,101220.94
2024-03-30T00:43:49.914Z,101204.78
2024-03-30T00:46:17.910Z,101203.05
2024-03-30T00:48:45.997Z,101216.41
2024-03-30T00:51:13.987Z,101203.42
2024-03-30T00:53:42.482Z,101202.57
2024-03-30T00:56:10.418Z,101206.05
2024-03-30T00:58:38.564Z,101210.13
2024-03-30T01:01:07.952Z,101210.80
2024-03-30T01:03:36.035Z,101204.34
2024-03-30T01:06:05.022Z,101197.61
2024-03-30T01:08:33.167Z,101198.61
2024-03-30T01:11:01.574Z,101202.59
2024-03-30T01:13:30.730Z,101208.88
2024-03-30T01:15:59.427Z,101203.55
2024-03-30T01:18:28.446Z,101201.21
2024-03-30T01:20:57.986Z,101200.15
2024-03-30T01:23:27.836Z,101200.66
2024-03-30T01:25:55.824Z,101199.63
2024-03-30T01:28:25.112Z,101200.07
2024-03-30T01:30:54.452Z,101190.75
2024-03-30T01:33:22.817Z,101193.92
2024-03-30T01:35:51.288Z,101198.73
2024-03-30T01:38:21.576Z,101200.23
2024-03-30T01:40:50.264Z,101199.27
2024-03-30T01:43:20.507Z,101192.61
2024-03-30T01:45:48.528Z,101197.11
2024-03-30T01:48:16.608Z,101201.59
2024-03-30T01:50:45.101Z,101205.77
2024-03-30T01:53:14.113Z,101204.86
2024-03-30T01:55:42.217Z,101211.79
2024-03-30T01:58:10.961Z,101214.02
2024-03-30T02:00:38.930Z,101220.31
2024-03-30T02:03:07.065Z,101221.71
2024-03-30T02:05:35.063Z,101219.45
2024-03-30T02:08:04.820Z,101216.16
2024-03-30T02:10:32.755Z,101223.04
2024-03-30T02:13:00.773Z,101227.40
2024-03-30T02:15:28.825Z,101235.64
2024-03-30T02:17:56.899Z,101241.34
2024-03-30T02:20:24.927Z,101250.67
2024-03-30T02:22:55.732Z,101252.08
2024-03-30T02:25:24.058Z,101245.95
2024-03-30T02:27:52.073Z,101249.11
2024-03-30T02:30:28.086Z,101255.79
2024-03-30T02:32:56.463Z,101252.51
2024-03-30T02:35:25.035Z,101251.84
2024-03-30T02:37:54.220Z,101254.34
2024-03-30T02:40:23.835Z,101247.10
2024-03-30T02:42:52.042Z,101249.43
2024-03-30T02:45:20.703Z,101246.42
2024-03-30T02:47:48.658Z,101245.88
2024-03-30T02:50:16.663Z,101250.03
2024-03-30T02:52:44.860Z,101249.16
2024-03-30T02:55:12.834Z,101250.70
2024-03-30T02:57:40.802Z,101249.52
2024-03-30T03:00:11.006Z,101247.27
2024-03-30T03:02:39.379Z,101249.01
2024-03-30T03:05:07.703Z,101245.75
2024-03-30T03:07:35.613Z,101242.29
2024-03-30T03:10:03.877Z,101242.14
2024-03-30T03:12:32.077Z,101247.95
2024-03-30T03:15:00.231Z,101246.89
2024-03-30T03:17:28.581Z,101247.78
2024-03-30T03:19:56.506Z,101251.09
2024-03-30T03:22:24.450Z,101247.91
2024-03-30T03:24:52.584Z,101246.06
2024-03-30T03:27:20.520Z,101244.74
2024-03-30T03:29:48.538Z,101245.03
2024-03-30T03:32:16.535Z,101245.05
2024-03-30T03:34:44.540Z,101242.89
2024-03-30T03:37:12.590Z,101242.83
2024-03-30T03:39:40.502Z,101244.88
2024-03-30T03:42:08.446Z,101242.82
2024-03-30T03:44:36.661Z,101245.70
2024-03-30T03:47:05.087Z,101248.55
2024-03-30T03:49:33.086Z,101244.74
2024-03-30T03:52:01.948Z,101240.89
2024-03-30T03:54:29.973Z,101234.02
2024-03-30T03:56:57.975Z,101228.94
2024-03-30T03:59:26.066Z,101223.48
2024-03-30T04:01:54.026Z,101227.15
2024-03-30T04:04:22.143Z,101225.95
2024-03-30T04:06:50.360Z,101229.71
2024-03-30T04:09:19.111Z,101229.93
2024-03-30T04:11:47.096Z,101231.05
2024-03-30T04:14:15.086Z,101236.98
2024-03-30T04:16:43.167Z,101235.35
2024-03-30T04:19:18.671Z,101234.65
2024-03-30T04:21:46.742Z,101227.18
2024-03-30T04:24:14.738Z,101228.30
2024-03-30T04:26:42.807Z,101225.75
2024-03-30T04:29:11.095Z,101225.55
2024-03-30T04:31:39.034Z,101225.87
2024-03-30T04:34:07.130Z,101227.63
2024-03-30T04:36:35.099Z,101226.33
2024-03-30T04:39:05.690Z,101230.95
2024-03-30T04:41:33.893Z,101230.84
2024-03-30T04:44:02.015Z,101232.50
2024-03-30T04:46:29.956Z,101226.20
2024-03-30T04:49:00.796Z,101224.73
2024-03-30T04:51:29.592Z,101226.54
2024-03-30T04:53:58.241Z,101229.81
2024-03-30T04:56:26.208Z,101225.86
2024-03-30T04:58:54.250Z,101227.27
2024-03-30T05:01:24.931Z,101220.36
2024-03-30T05:03:53.150Z,101224.89
2024-03-30T05:06:21.762Z,101225.23
2024-03-30T05:08:49.771Z,101227.40
2024-03-30T05:11:17.753Z,101229.85
2024-03-30T05:13:45.772Z,101234.66
2024-03-30T05:16:13.794Z,101224.20
2024-03-30T05:18:41.884Z,101222.11
2024-03-30T05:21:09.897Z,101217.00
2024-03-30T05:23:38.172Z,101217.77
2024-03-30T05:26:07.060Z,101221.13
2024-03-30T05:28:36.178Z,101220.24
2024-03-30T05:31:23.329Z,101222.92
2024-03-30T05:33:51.395Z,101218.45
2024-03-30T05:36:19.803Z,101214.91
2024-03-30T05:38:47.766Z,101213.83
2024-03-30T05:41:15.721Z,101208.67
2024-03-30T05:43:43.770Z,101208.16
2024-03-30T05:46:12.127Z,101206.89
2024-03-30T05:48:40.331Z,101212.70
2024-03-30T05:51:08.296Z,101207.47
2024-03-30T05:53:36.612Z,101209.16
2024-03-30T05:56:04.916Z,101215.04
2024-03-30T05:58:32.924Z,101213.77
2024-03-30T06:01:00.943Z,101217.19
2024-03-30T06:03:28.985Z,101218.51
2024-03-30T06:05:57.041Z,101218.99
2024-03-30T06:08:25.118Z,101217.25
2024-03-30T06:10:53.130Z,101218.79
2024-03-30T06:13:21.162Z,101220.30
2024-03-30T06:15:49.105Z,101218.59
2024-03-30T06:18:17.964Z,101214.38
2024-03-30T06:20:46.140Z,101213.64
2024-03-30T06:23:14.119Z,101213.77
2024-03-30T06:25:42.186Z,101217.23
2024-03-30T06:28:10.134Z,101219.38
2024-03-30T06:30:38.184Z,101221.53
2024-03-30T06:33:07.068Z,101222.79
2024-03-30T06:35:36.936Z,101219.77
2024-03-30T06:38:05.622Z,101219.84
2024-03-30T06:40:52.474Z,101215.10
2024-03-30T06:43:39.263Z,101214.68
2024-03-30T06:46:07.636Z,101209.10
2024-03-30T06:48:35.994Z,101206.63
2024-03-30T06:51:04.909Z,101205.10
2024-03-30T06:53:32.937Z,101200.61
2024-03-30T06:56:01.107Z,101199.41
2024-03-30T06:58:29.109Z,101201.61
2024-03-30T07:00:57.220Z,101205.53
2024-03-30T07:03:25.321Z,101198.75
2024-03-30T07:05:53.540Z,101194.04
2024-03-30T07:08:21.486Z,101187.91
2024-03-30T07:10:49.528Z,101192.65
2024-03-30T07:13:17.648Z,101188.17
2024-03-30T07:15:45.679Z,101187.70
2024-03-30T07:18:14.242Z,101183.02
2024-03-30T07:20:42.594Z,101186.16
2024-03-30T07:23:10.628Z,101187.61
2024-03-30T07:25:40.461Z,101192.56
2024-03-30T07:28:08.593Z,101189.21
2024-03-30T07:30:40.566Z,101185.23
2024-03-30T07:33:08.720Z,101180.23
2024-03-30T07:35:36.884Z,101173.86
2024-03-30T07:38:05.535Z,101173.84
2024-03-30T07:40:33.503Z,101171.91
2024-03-30T07:43:01.510Z,101172.80
2024-03-30T07:45:29.502Z,101171.85
2024-03-30T07:47:57.482Z,101170.81
2024-03-30T07:50:25.473Z,101165.50
2024-03-30T07:52:53.385Z,101167.17
2024-03-30T07:55:21.591Z,101162.99
2024-03-30T07:57:49.788Z,101164.08
2024-03-30T08:00:18.087Z,101167.98
2024-03-30T08:02:46.033Z,101163.39
2024-03-30T08:05:14.088Z,101163.84
2024-03-30T08:07:42.159Z,101163.52
2024-03-30T08:10:10.758Z,101166.46
2024-03-30T08:12:39.770Z,101162.33
2024-03-30T08:15:08.036Z,101168.50
2024-03-30T08:17:35.996Z,101161.83
2024-03-30T08:20:05.803Z,101163.04
2024-03-30T08:22:33.898Z,101163.44
2024-03-30T08:25:02.001Z,101162.98
2024-03-30T08:27:30.052Z,101159.67
2024-03-30T08:29:58.079Z,101156.48
2024-03-30T08:32:26.147Z,101152.48
2024-03-30T08:34:54.228Z,101155.38
2024-03-30T08:37:24.419Z,101154.73
2024-03-30T08:39:52.439Z,101152.96
2024-03-30T08:42:22.467Z,101155.00
2024-03-30T08:44:51.453Z,101152.33
2024-03-30T08:47:19.471Z,101154.67
2024-03-30T08:49:47.938Z,101145.64
2024-03-30T08:52:15.950Z,101145.85
2024-03-30T08:54:43.986Z,101143.50
2024-03-30T08:57:12.154Z,101139.45
2024-03-30T08:59:40.266Z,101138.94
2024-03-30T09:02:08.351Z,101137.84
2024-03-30T09:04:36.416Z,101131.59
2024-03-30T09:07:04.527Z,101136.88
2024-03-30T09:09:34.950Z,101135.04
2024-03-30T09:12:03.903Z,101134.42
2024-03-30T09:14:32.931Z,101134.80
2024-03-30T09:17:01.052Z,101129.83
2024-03-30T09:19:30.213Z,101124.67
2024-03-30T09:21:58.491Z,101119.18
2024-03-30T09:24:26.555Z,101119.14
2024-03-30T09:26:56.065Z,101114.48
2024-03-30T09:29:24.336Z,101111.45
2024-03-30T09:31:53.119Z,101107.30
2024-03-30T09:34:33.833Z,101106.71
2024-03-30T09:37:10.311Z,101103.77
2024-03-30T09:39:40.636Z,101105.41
2024-03-30T09:42:08.919Z,101099.86
2024-03-30T09:44:37.164Z,101099.48
2024-03-30T09:47:05.825Z,101101.14
2024-03-30T09:49:34.336Z,101103.43
2024-03-30T09:52:05.719Z,101102.72
2024-03-30T09:54:41.359Z,101098.91
2024-03-30T09:57:20.005Z,101098.58
2024-03-30T09:59:51.579Z,101095.38
2024-03-30T10:02:22.968Z,101099.23
2024-03-30T10:04:58.556Z,101094.22
2024-03-30T10:08:00.594Z,101093.41
2024-03-30T10:10:32.949Z,101086.92
2024-03-30T10:13:05.775Z,101084.15
2024-03-30T10:15:37.191Z,101079.33
2024-03-30T10:18:05.447Z,101074.06
2024-03-30T10:20:33.428Z,101069.45
2024-03-30T10:23:01.461Z,101066.29
2024-03-30T10:25:29.785Z,101064.73
2024-03-30T10:27:58.022Z,101063.83
2024-03-30T10:30:26.807Z,101060.40
2024-03-30T10:33:00.665Z,101057.29
2024-03-30T10:35:31.711Z,101060.96
2024-03-30T10:37:59.913Z,101059.37
2024-03-30T10:40:27.957Z,101058.41
2024-03-30T10:43:00.042Z,101056.11
2024-03-30T10:45:29.318Z,101051.64
2024-03-30T10:47:58.464Z,101050.60
2024-03-30T10:50:29.457Z,101052.56
2024-03-30T10:52:57.533Z,101046.40
2024-03-30T10:55:25.980Z,101047.22
2024-03-30T10:57:57.397Z,101040.45
2024-03-30T11:00:27.345Z,101033.64
2024-03-30T11:02:55.712Z,101031.14
2024-03-30T11:05:23.773Z,101028.17
2024-03-30T11:07:51.850Z,101023.58
2024-03-30T11:10:20.016Z,101023.25
2024-03-30T11:12:48.259Z,101023.66
2024-03-30T11:15:16.734Z,101021.11
2024-03-30T11:18:03.466Z,101012.89
2024-03-30T11:20:57.710Z,101008.52
2024-03-30T11:23:43.543Z,101008.63
2024-03-30T11:26:11.915Z,101007.39
2024-03-30T11:28:44.555Z,101005.08
2024-03-30T11:31:32.940Z,101001.67
2024-03-30T11:34:06.040Z,100986.80
2024-03-30T11:36:39.013Z,100988.15
2024-03-30T11:39:21.304Z,100989.08
2024-03-30T11:41:52.631Z,100985.61
2024-03-30T11:44:23.130Z,100983.27
2024-03-30T11:46:51.413Z,100976.20
2024-03-30T11:49:20.520Z,100972.75
2024-03-30T11:51:48.574Z,100976.31
2024-03-30T11:54:24.547Z,100971.97
2024-03-30T11:57:23.182Z,100970.70
2024-03-30T11:59:53.008Z,100970.94
2024-03-30T12:02:22.940Z,100971.98
2024-03-30T12:04:51.093Z,100970.14
2024-03-30T12:07:19.272Z,100964.91
2024-03-30T12:09:50.429Z,100960.21
2024-03-30T12:12:22.123Z,100957.45
2024-03-30T12:14:54.449Z,100955.14
2024-03-30T12:17:23.959Z,100945.52
2024-03-30T12:19:53.468Z,100941.55
2024-03-30T12:22:25.636Z,100937.60
2024-03-30T12:24:54.081Z,100938.36
2024-03-30T12:27:22.184Z,100932.86
2024-03-30T12:29:50.142Z,100928.20
2024-03-30T12:32:18.424Z,100924.94
2024-03-30T12:34:48.066Z,100921.95
2024-03-30T12:37:19.226Z,100922.16
2024-03-30T12:39:47.341Z,100916.60
2024-03-30T12:42:15.549Z,100906.97
2024-03-30T12:44:44.705Z,100905.42
2024-03-30T12:47:13.552Z,100901.83
2024-03-30T12:49:41.815Z,100894.55
2024-03-30T12:52:10.619Z,100896.36
2024-03-30T12:54:39.097Z,100897.58
2024-03-30T12:57:07.421Z,100892.27
2024-03-30T12:59:36.007Z,100890.08
2024-03-30T13:02:04.900Z,100886.85
2024-03-30T13:04:33.203Z,100881.81
2024-03-30T13:07:11.351Z,100871.77
2024-03-30T13:09:43.387Z,100870.15
2024-03-30T13:12:11.416Z,100868.87
2024-03-30T13:14:39.651Z,100864.48
2024-03-30T13:17:08.278Z,100868.87
2024-03-30T13:19:36.624Z,100865.62
2024-03-30T13:22:12.371Z,100863.45
2024-03-30T13:24:40.871Z,100860.29
2024-03-30T13:27:10.518Z,100860.48
2024-03-30T13:29:42.293Z,100858.56
2024-03-30T13:32:10.315Z,100857.32
2024-03-30T13:34:38.169Z,100858.70
2024-03-30T13:37:07.093Z,100856.25
2024-03-30T13:39:36.327Z,100850.40
2024-03-30T13:42:04.886Z,100853.16
2024-03-30T13:44:33.591Z,100847.91
2024-03-30T13:47:03.094Z,100843.32
2024-03-30T13:49:31.454Z,100842.92
2024-03-30T13:51:59.693Z,100845.39
2024-03-30T13:54:27.857Z,100843.80
2024-03-30T13:56:59.142Z,100844.14
2024-03-30T13:59:27.078Z,100845.35
2024-03-30T14:01:55.069Z,100844.32
2024-03-30T14:04:24.357Z,100845.26
2024-03-30T14:06:52.900Z,100844.27
2024-03-30T14:09:22.193Z,100839.56
2024-03-30T14:11:50.564Z,100839.77
2024-03-30T14:14:18.857Z,100837.53
2024-03-30T14:16:47.110Z,100841.48
2024-03-30T14:19:15.546Z,100837.13
2024-03-30T14:21:43.952Z,100836.04
2024-03-30T14:24:12.043Z,100835.23
2024-03-30T14:26:40.048Z,100835.11
2024-03-30T14:29:07.954Z,100831.59
2024-03-30T14:31:36.546Z,100834.00
2024-03-30T14:34:04.489Z,100831.10
2024-03-30T14:36:33.400Z,100829.66
2024-03-30T14:39:01.391Z,100830.31
2024-03-30T14:41:29.283Z,100829.30
2024-03-30T14:43:57.381Z,100827.48
2024-03-30T14:46:26.094Z,100828.52
2024-03-30T14:48:54.069Z,100831.71
2024-03-30T14:51:22.920Z,100830.70
2024-03-30T14:53:51.038Z,100827.28
2024-03-30T14:56:19.441Z,100825.37
2024-03-30T14:58:47.384Z,100827.23
2024-03-30T15:01:16.204Z,100823.34
2024-03-30T15:03:45.621Z,100822.08
2024-03-30T15:06:18.688Z,100820.58
2024-03-30T15:08:47.779Z,100817.23
2024-03-30T15:11:15.979Z,100817.88
2024-03-30T15:13:45.433Z,100820.27
2024-03-30T15:16:14.042Z,100817.18
2024-03-30T15:18:42.839Z,100819.14
2024-03-30T15:21:11.129Z,100825.03
2024-03-30T15:23:40.582Z,100825.30
2024-03-30T15:26:12.983Z,100827.30
2024-03-30T15:28:41.867Z,100829.42
2024-03-30T15:31:28.724Z,100829.46
2024-03-30T15:33:58.611Z,100826.20
2024-03-30T15:36:27.051Z,100831.53
2024-03-30T15:38:55.163Z,100832.48
2024-03-30T15:41:23.386Z,100835.32
2024-03-30T15:43:51.483Z,100833.62
2024-03-30T15:46:22.671Z,100832.27
2024-03-30T15:48:51.373Z,100835.61
2024-03-30T15:51:19.598Z,100832.31
2024-03-30T15:53:48.078Z,100830.07
2024-03-30T15:56:16.769Z,100834.23
2024-03-30T15:58:46.166Z,100830.77
2024-03-30T16:01:14.158Z,100830.41
2024-03-30T16:03:42.098Z,100830.02
2024-03-30T16:06:10.501Z,100836.15
2024-03-30T16:08:38.707Z,100837.95
2024-03-30T16:11:07.625Z,100835.12
2024-03-30T16:13:36.050Z,100836.67
2024-03-30T16:16:04.777Z,100836.15
2024-03-30T16:18:34.216Z,100831.56
2024-03-30T16:21:04.981Z,100835.64
2024-03-30T16:23:33.239Z,100836.69
2024-03-30T16:26:01.360Z,100842.81
2024-03-30T16:28:30.286Z,100843.02
2024-03-30T16:30:58.463Z,100845.56
2024-03-30T16:33:28.218Z,100850.84
2024-03-30T16:35:57.021Z,100849.84
2024-03-30T16:38:25.224Z,100851.77
2024-03-30T16:40:53.224Z,100854.34
2024-03-30T16:43:21.284Z,100857.78
2024-03-30T16:45:58.125Z,100859.55
2024-03-30T16:48:26.240Z,100863.09
2024-03-30T16:51:01.283Z,100866.48
2024-03-30T16:53:29.446Z,100865.83
2024-03-30T16:55:57.971Z,100871.08
2024-03-30T16:58:26.450Z,100874.56
2024-03-30T17:00:58.630Z,100878.57
2024-03-30T17:03:27.076Z,100878.00
2024-03-30T17:05:55.249Z,100877.14
2024-03-30T17:08:23.493Z,100875.10
2024-03-30T17:10:52.260Z,100878.59
2024-03-30T17:13:21.242Z,100882.71
2024-03-30T17:15:55.359Z,100889.91
2024-03-30T17:18:25.178Z,100889.22
2024-03-30T17:21:00.361Z,100891.83
2024-03-30T17:23:28.699Z,100894.20
2024-03-30T17:25:58.531Z,100906.44
2024-03-30T17:28:27.430Z,100906.73
2024-03-30T17:30:55.979Z,100914.23
2024-03-30T17:33:24.153Z,100922.52
2024-03-30T17:36:05.976Z,100924.37
2024-03-30T17:38:34.297Z,100926.40
2024-03-30T17:41:02.973Z,100925.27
2024-03-30T17:43:37.286Z,100920.84
2024-03-30T17:46:12.867Z,100921.54
2024-03-30T17:48:41.015Z,100921.14
2024-03-30T17:51:09.738Z,100923.93
2024-03-30T17:53:39.840Z,100925.89
2024-03-30T17:56:10.862Z,100926.92
2024-03-30T17:58:40.393Z,100924.98
2024-03-30T18:01:08.825Z,100925.92
2024-03-30T18:03:37.394Z,100932.05
2024-03-30T18:06:06.080Z,100932.58
2024-03-30T18:08:35.146Z,100935.73
2024-03-30T18:11:04.368Z,100937.52
2024-03-30T18:13:33.725Z,100938.59
2024-03-30T18:16:06.021Z,100937.64
2024-03-30T18:18:34.090Z,100934.84
2024-03-30T18:21:02.283Z,100938.11
2024-03-30T18:23:31.769Z,100937.48
2024-03-30T18:26:01.689Z,100935.27
2024-03-30T18:28:30.021Z,100933.45
2024-03-30T18:30:58.207Z,100934.85
2024-03-30T18:33:26.367Z,100934.67
2024-03-30T18:35:54.381Z,100930.95
2024-03-30T18:38:22.477Z,100939.01
2024-03-30T18:40:50.579Z,100940.33
2024-03-30T18:43:19.411Z,100944.45
2024-03-30T18:45:47.711Z,100945.18
2024-03-30T18:48:15.849Z,100945.59
2024-03-30T18:50:44.695Z,100940.56
2024-03-30T18:53:12.685Z,100942.91
2024-03-30T18:55:40.694Z,100945.75
2024-03-30T18:58:08.722Z,100947.63
2024-03-30T19:00:36.803Z,100949.27
2024-03-30T19:03:05.102Z,100948.30
2024-03-30T19:05:33.533Z,100951.20
2024-03-30T19:08:01.623Z,100953.21
2024-03-30T19:10:32.838Z,100955.73
2024-03-30T19:13:03.833Z,100959.30
2024-03-30T19:15:32.977Z,100957.71
2024-03-30T19:18:01.067Z,100955.56
2024-03-30T19:20:29.259Z,100954.44
2024-03-30T19:23:00.717Z,100959.48
2024-03-30T19:25:29.095Z,100957.67
2024-03-30T19:27:57.175Z,100957.30
2024-03-30T19:30:25.268Z,100957.30
2024-03-30T19:32:53.668Z,100959.48
2024-03-30T19:35:21.613Z,100964.52
2024-03-30T19:37:50.901Z,100965.02
2024-03-30T19:40:18.950Z,100970.15
2024-03-30T19:42:47.096Z,100968.24
2024-03-30T19:45:15.183Z,100963.71
2024-03-30T19:47:45.126Z,100961.20
2024-03-30T19:50:14.583Z,100962.55
2024-03-30T19:52:42.775Z,100961.91
2024-03-30T19:55:10.763Z,100967.73
2024-03-30T19:57:38.949Z,100965.16
2024-03-30T20:00:07.419Z,100971.98
2024-03-30T20:02:35.553Z,100975.02
2024-03-30T20:05:03.947Z,100978.30
2024-03-30T20:07:31.957Z,100976.73
2024-03-30T20:10:00.088Z,100974.30
2024-03-30T20:12:28.408Z,100976.08
2024-03-30T20:14:56.486Z,100976.65
2024-03-30T20:17:28.583Z,100977.39
2024-03-30T20:19:58.080Z,100977.54
2024-03-30T20:22:26.254Z,100977.09
2024-03-30T20:24:55.507Z,100978.38
2024-03-30T20:27:23.940Z,100981.98
2024-03-30T20:29:52.314Z,100985.54
2024-03-30T20:32:23.958Z,100983.76
2024-03-30T20:34:52.134Z,100986.76
2024-03-30T20:37:20.175Z,100986.30
2024-03-30T20:39:49.449Z,100988.16
2024-03-30T20:42:17.583Z,100987.24
2024-03-30T20:44:45.597Z,100986.45
2024-03-30T20:47:14.023Z,100992.42
2024-03-30T20:49:42.137Z,100997.79
2024-03-30T20:52:10.681Z,101001.06
2024-03-30T20:54:38.927Z,101002.48
2024-03-30T20:57:06.971Z,101000.89
2024-03-30T20:59:34.959Z,101003.60
2024-03-30T21:02:03.016Z,101004.83
2024-03-30T21:04:31.087Z,101002.69
2024-03-30T21:06:59.138Z,101004.17
2024-03-30T21:09:29.333Z,101011.18
2024-03-30T21:11:57.681Z,101014.83
2024-03-30T21:14:25.798Z,101012.19
2024-03-30T21:16:53.830Z,101013.04
2024-03-30T21:19:21.890Z,101015.94
2024-03-30T21:21:49.958Z,101018.45
2024-03-30T21:24:18.016Z,101019.06
2024-03-30T21:26:48.759Z,101022.16
2024-03-30T21:29:16.872Z,101020.92
2024-03-30T21:31:46.344Z,101023.41
2024-03-30T21:34:14.362Z,101023.77
2024-03-30T21:36:42.419Z,101018.56
2024-03-30T21:39:10.963Z,101023.58
2024-03-30T21:41:39.048Z,101025.22
2024-03-30T21:44:07.636Z,101024.13
2024-03-30T21:46:35.552Z,101026.02
2024-03-30T21:49:04.235Z,101028.55
2024-03-30T21:51:32.341Z,101027.44
2024-03-30T21:54:00.449Z,101028.42
2024-03-30T21:56:28.469Z,101032.23
2024-03-30T21:58:57.266Z,101033.25
2024-03-30T22:01:25.348Z,101036.59
2024-03-30T22:03:53.624Z,101037.75
2024-03-30T22:06:21.772Z,101040.77
2024-03-30T22:08:49.830Z,101039.75
2024-03-30T22:11:17.979Z,101040.48
2024-03-30T22:13:46.170Z,101035.98
2024-03-30T22:16:14.223Z,101032.05
2024-03-30T22:18:42.253Z,101034.41
2024-03-30T22:21:10.352Z,101042.05
2024-03-30T22:23:38.452Z,101048.09
2024-03-30T22:26:07.102Z,101045.38
2024-03-30T22:28:35.238Z,101051.50
2024-03-30T22:31:03.414Z,101050.38
2024-03-30T22:33:31.456Z,101044.04
2024-03-30T22:36:01.460Z,101046.01
2024-03-30T22:38:29.731Z,101046.70
2024-03-30T22:41:04.253Z,101048.95
2024-03-30T22:43:32.127Z,101041.52
2024-03-30T22:46:01.087Z,101037.27
2024-03-30T22:48:29.225Z,101041.48
2024-03-30T22:50:58.103Z,101039.51
2024-03-30T22:53:26.275Z,101037.70
2024-03-30T22:55:59.395Z,101038.34
2024-03-30T22:58:27.784Z,101045.33
2024-03-30T23:00:57.594Z,101045.90
2024-03-30T23:03:27.625Z,101044.91
2024-03-30T23:05:57.966Z,101040.16
2024-03-30T23:08:27.051Z,101036.41
2024-03-30T23:11:03.546Z,101037.05
2024-03-30T23:13:35.792Z,101035.58
2024-03-30T23:16:09.252Z,101027.95
2024-03-30T23:18:38.095Z,101030.71
2024-03-30T23:21:06.359Z,101034.80
2024-03-30T23:23:35.205Z,101031.13
2024-03-30T23:26:03.421Z,101035.26
2024-03-30T23:28:31.704Z,101034.70
2024-03-30T23:30:59.823Z,101032.00
2024-03-30T23:33:27.974Z,101023.08
2024-03-30T23:35:56.383Z,101023.02
2024-03-30T23:38:24.368Z,101018.52
2024-03-30T23:40:55.250Z,101015.38
2024-03-30T23:43:24.300Z,101012.57
2024-03-30T23:45:52.696Z,101005.55
2024-03-30T23:48:20.635Z,100996.60
2024-03-30T23:50:48.949Z,100996.29
2024-03-30T23:53:17.118Z,100999.21
2024-03-30T23:55:45.288Z,100996.05
2024-03-30T23:58:13.475Z,100993.23
